sensor_id;sensor_type;location;lat;lon;timestamp;P1;durP1;ratioP1;P2;durP2;ratioP2
41436;SDS011;27178;49.460;10.850;2023-07-20T00:00:35;3.20;;;2.65;;
41436;SDS011;27178;49.460;10.850;2023-07-20T00:03:12;2.70;;;2.42;;
41436;SDS011;27178;49.460;10.850;2023-07-20T00:05:47;2.95;;;2.65;;
41436;SDS011;27178;49.460;10.850;2023-07-20T00:08:15;3.55;;;2.58;;
41436;SDS011;27178;49.460;10.850;2023-07-20T00:10:44;3.78;;;2.65;;
41436;SDS011;27178;49.460;10.850;2023-07-20T00:13:13;2.80;;;2.58;;
41436;SDS011;27178;49.460;10.850;2023-07-20T00:15:42;3.17;;;2.78;;
41436;SDS011;27178;49.460;10.850;2023-07-20T00:18:10;4.40;;;2.80;;
41436;SDS011;27178;49.460;10.850;2023-07-20T00:20:40;5.93;;;2.63;;
41436;SDS011;27178;49.460;10.850;2023-07-20T00:23:10;3.15;;;2.63;;
41436;SDS011;27178;49.460;10.850;2023-07-20T00:25:38;2.80;;;2.50;;
41436;SDS011;27178;49.460;10.850;2023-07-20T00:28:06;3.38;;;2.60;;
41436;SDS011;27178;49.460;10.850;2023-07-20T00:30:35;3.28;;;2.72;;
41436;SDS011;27178;49.460;10.850;2023-07-20T00:33:10;3.83;;;2.50;;
41436;SDS011;27178;49.460;10.850;2023-07-20T00:35:39;2.70;;;2.25;;
41436;SDS011;27178;49.460;10.850;2023-07-20T00:38:07;2.67;;;2.47;;
41436;SDS011;27178;49.460;10.850;2023-07-20T00:40:37;3.10;;;2.78;;
41436;SDS011;27178;49.460;10.850;2023-07-20T00:43:06;2.63;;;2.40;;
41436;SDS011;27178;49.460;10.850;2023-07-20T00:45:36;3.20;;;2.90;;
41436;SDS011;27178;49.460;10.850;2023-07-20T00:48:05;3.88;;;3.00;;
41436;SDS011;27178;49.460;10.850;2023-07-20T00:50:35;3.70;;;2.97;;
41436;SDS011;27178;49.460;10.850;2023-07-20T00:53:05;3.95;;;3.30;;
41436;SDS011;27178;49.460;10.850;2023-07-20T00:55:33;3.92;;;2.78;;
41436;SDS011;27178;49.460;10.850;2023-07-20T00:58:03;3.03;;;2.72;;
41436;SDS011;27178;49.460;10.850;2023-07-20T01:00:32;4.57;;;2.90;;
41436;SDS011;27178;49.460;10.850;2023-07-20T01:03:00;3.90;;;2.58;;
41436;SDS011;27178;49.460;10.850;2023-07-20T01:05:32;4.30;;;2.72;;
41436;SDS011;27178;49.460;10.850;2023-07-20T01:08:07;3.05;;;2.67;;
41436;SDS011;27178;49.460;10.850;2023-07-20T01:10:41;3.30;;;2.67;;
41436;SDS011;27178;49.460;10.850;2023-07-20T01:13:13;2.65;;;2.40;;
41436;SDS011;27178;49.460;10.850;2023-07-20T01:15:42;2.60;;;2.40;;
41436;SDS011;27178;49.460;10.850;2023-07-20T01:18:18;4.68;;;2.65;;
41436;SDS011;27178;49.460;10.850;2023-07-20T01:20:46;3.67;;;2.53;;
41436;SDS011;27178;49.460;10.850;2023-07-20T01:23:28;3.13;;;2.42;;
41436;SDS011;27178;49.460;10.850;2023-07-20T01:29:36;2.80;;;2.20;;
41436;SDS011;27178;49.460;10.850;2023-07-20T01:32:18;3.28;;;2.55;;
41436;SDS011;27178;49.460;10.850;2023-07-20T01:34:49;3.08;;;2.72;;
41436;SDS011;27178;49.460;10.850;2023-07-20T01:37:22;6.05;;;2.28;;
41436;SDS011;27178;49.460;10.850;2023-07-20T01:39:54;4.93;;;2.55;;
41436;SDS011;27178;49.460;10.850;2023-07-20T01:42:23;5.55;;;2.80;;
41436;SDS011;27178;49.460;10.850;2023-07-20T01:44:52;4.55;;;2.75;;
41436;SDS011;27178;49.460;10.850;2023-07-20T01:47:22;3.55;;;2.75;;
41436;SDS011;27178;49.460;10.850;2023-07-20T01:49:50;3.50;;;2.47;;
41436;SDS011;27178;49.460;10.850;2023-07-20T01:52:18;4.03;;;2.22;;
41436;SDS011;27178;49.460;10.850;2023-07-20T01:54:46;2.85;;;2.38;;
41436;SDS011;27178;49.460;10.850;2023-07-20T01:57:15;5.45;;;2.88;;
41436;SDS011;27178;49.460;10.850;2023-07-20T01:59:44;4.40;;;2.78;;
41436;SDS011;27178;49.460;10.850;2023-07-20T02:02:12;2.80;;;2.40;;
41436;SDS011;27178;49.460;10.850;2023-07-20T02:04:42;6.70;;;2.88;;
41436;SDS011;27178;49.460;10.850;2023-07-20T02:07:10;5.30;;;2.55;;
41436;SDS011;27178;49.460;10.850;2023-07-20T02:09:39;4.03;;;2.65;;
41436;SDS011;27178;49.460;10.850;2023-07-20T02:12:08;3.10;;;2.78;;
41436;SDS011;27178;49.460;10.850;2023-07-20T02:14:36;4.60;;;2.78;;
41436;SDS011;27178;49.460;10.850;2023-07-20T02:17:05;2.75;;;2.40;;
41436;SDS011;27178;49.460;10.850;2023-07-20T02:19:37;2.83;;;2.40;;
41436;SDS011;27178;49.460;10.850;2023-07-20T02:22:07;3.30;;;2.72;;
41436;SDS011;27178;49.460;10.850;2023-07-20T02:24:36;5.88;;;3.22;;
41436;SDS011;27178;49.460;10.850;2023-07-20T02:27:04;6.47;;;2.80;;
41436;SDS011;27178;49.460;10.850;2023-07-20T02:29:33;3.55;;;2.65;;
41436;SDS011;27178;49.460;10.850;2023-07-20T02:32:02;3.75;;;2.60;;
41436;SDS011;27178;49.460;10.850;2023-07-20T02:34:31;4.38;;;2.83;;
41436;SDS011;27178;49.460;10.850;2023-07-20T02:37:00;8.23;;;2.55;;
41436;SDS011;27178;49.460;10.850;2023-07-20T02:39:30;6.25;;;3.30;;
41436;SDS011;27178;49.460;10.850;2023-07-20T02:41:58;5.45;;;3.28;;
41436;SDS011;27178;49.460;10.850;2023-07-20T02:44:27;3.83;;;2.85;;
41436;SDS011;27178;49.460;10.850;2023-07-20T02:46:56;3.78;;;2.90;;
41436;SDS011;27178;49.460;10.850;2023-07-20T02:49:25;4.65;;;2.60;;
41436;SDS011;27178;49.460;10.850;2023-07-20T02:51:53;5.18;;;3.10;;
41436;SDS011;27178;49.460;10.850;2023-07-20T02:54:22;3.78;;;3.40;;
41436;SDS011;27178;49.460;10.850;2023-07-20T02:56:52;3.53;;;2.70;;
41436;SDS011;27178;49.460;10.850;2023-07-20T02:59:20;4.50;;;2.80;;
41436;SDS011;27178;49.460;10.850;2023-07-20T03:01:48;4.43;;;2.97;;
41436;SDS011;27178;49.460;10.850;2023-07-20T03:04:17;4.90;;;3.03;;
41436;SDS011;27178;49.460;10.850;2023-07-20T03:06:45;3.08;;;2.72;;
41436;SDS011;27178;49.460;10.850;2023-07-20T03:09:14;5.25;;;3.05;;
41436;SDS011;27178;49.460;10.850;2023-07-20T03:11:43;4.40;;;3.33;;
41436;SDS011;27178;49.460;10.850;2023-07-20T03:14:13;7.65;;;2.78;;
41436;SDS011;27178;49.460;10.850;2023-07-20T03:16:41;3.70;;;2.95;;
41436;SDS011;27178;49.460;10.850;2023-07-20T03:19:10;4.72;;;3.00;;
41436;SDS011;27178;49.460;10.850;2023-07-20T03:21:38;5.25;;;3.20;;
41436;SDS011;27178;49.460;10.850;2023-07-20T03:24:07;3.40;;;3.10;;
41436;SDS011;27178;49.460;10.850;2023-07-20T03:26:36;5.32;;;3.15;;
41436;SDS011;27178;49.460;10.850;2023-07-20T03:29:05;7.00;;;2.92;;
41436;SDS011;27178;49.460;10.850;2023-07-20T03:31:34;6.63;;;3.25;;
41436;SDS011;27178;49.460;10.850;2023-07-20T03:34:03;4.15;;;2.75;;
41436;SDS011;27178;49.460;10.850;2023-07-20T03:36:32;3.95;;;2.92;;
41436;SDS011;27178;49.460;10.850;2023-07-20T03:39:00;6.05;;;2.63;;
41436;SDS011;27178;49.460;10.850;2023-07-20T03:41:29;4.28;;;2.83;;
41436;SDS011;27178;49.460;10.850;2023-07-20T03:43:57;3.85;;;2.92;;
41436;SDS011;27178;49.460;10.850;2023-07-20T03:46:26;4.72;;;2.90;;
41436;SDS011;27178;49.460;10.850;2023-07-20T03:48:56;6.32;;;2.85;;
41436;SDS011;27178;49.460;10.850;2023-07-20T03:51:24;3.83;;;2.53;;
41436;SDS011;27178;49.460;10.850;2023-07-20T03:53:53;6.68;;;3.40;;
41436;SDS011;27178;49.460;10.850;2023-07-20T03:56:21;4.13;;;2.58;;
41436;SDS011;27178;49.460;10.850;2023-07-20T03:58:51;4.25;;;2.47;;
41436;SDS011;27178;49.460;10.850;2023-07-20T04:01:19;6.03;;;3.13;;
41436;SDS011;27178;49.460;10.850;2023-07-20T04:03:48;3.00;;;2.63;;
41436;SDS011;27178;49.460;10.850;2023-07-20T04:06:17;4.28;;;3.17;;
41436;SDS011;27178;49.460;10.850;2023-07-20T04:08:45;4.40;;;2.78;;
41436;SDS011;27178;49.460;10.850;2023-07-20T04:11:14;3.42;;;2.67;;
41436;SDS011;27178;49.460;10.850;2023-07-20T04:13:43;3.38;;;2.80;;
41436;SDS011;27178;49.460;10.850;2023-07-20T04:16:12;5.68;;;2.70;;
41436;SDS011;27178;49.460;10.850;2023-07-20T04:18:40;4.75;;;2.83;;
41436;SDS011;27178;49.460;10.850;2023-07-20T04:21:11;4.95;;;2.95;;
41436;SDS011;27178;49.460;10.850;2023-07-20T04:23:41;4.90;;;3.17;;
41436;SDS011;27178;49.460;10.850;2023-07-20T04:26:09;6.45;;;3.08;;
41436;SDS011;27178;49.460;10.850;2023-07-20T04:28:39;6.57;;;3.03;;
41436;SDS011;27178;49.460;10.850;2023-07-20T04:31:09;4.72;;;2.42;;
41436;SDS011;27178;49.460;10.850;2023-07-20T04:33:38;5.20;;;3.00;;
41436;SDS011;27178;49.460;10.850;2023-07-20T04:36:06;7.78;;;3.10;;
41436;SDS011;27178;49.460;10.850;2023-07-20T04:38:35;5.53;;;2.80;;
41436;SDS011;27178;49.460;10.850;2023-07-20T04:41:05;5.50;;;2.40;;
41436;SDS011;27178;49.460;10.850;2023-07-20T04:43:33;5.80;;;2.42;;
41436;SDS011;27178;49.460;10.850;2023-07-20T04:46:02;6.45;;;2.90;;
41436;SDS011;27178;49.460;10.850;2023-07-20T04:48:30;7.28;;;2.90;;
41436;SDS011;27178;49.460;10.850;2023-07-20T04:50:59;7.47;;;2.70;;
41436;SDS011;27178;49.460;10.850;2023-07-20T04:53:27;4.68;;;2.42;;
41436;SDS011;27178;49.460;10.850;2023-07-20T04:55:55;5.18;;;2.45;;
41436;SDS011;27178;49.460;10.850;2023-07-20T04:58:25;5.63;;;2.90;;
41436;SDS011;27178;49.460;10.850;2023-07-20T05:00:53;4.40;;;2.50;;
41436;SDS011;27178;49.460;10.850;2023-07-20T05:03:21;4.55;;;2.75;;
41436;SDS011;27178;49.460;10.850;2023-07-20T05:05:50;4.32;;;2.30;;
41436;SDS011;27178;49.460;10.850;2023-07-20T05:08:18;4.07;;;2.38;;
41436;SDS011;27178;49.460;10.850;2023-07-20T05:10:48;3.45;;;2.30;;
41436;SDS011;27178;49.460;10.850;2023-07-20T05:13:17;2.33;;;2.08;;
41436;SDS011;27178;49.460;10.850;2023-07-20T05:15:47;6.10;;;2.30;;
41436;SDS011;27178;49.460;10.850;2023-07-20T05:18:19;2.67;;;2.15;;
41436;SDS011;27178;49.460;10.850;2023-07-20T05:20:47;4.22;;;2.50;;
41436;SDS011;27178;49.460;10.850;2023-07-20T05:23:17;2.90;;;2.10;;
41436;SDS011;27178;49.460;10.850;2023-07-20T05:25:46;2.65;;;1.92;;
41436;SDS011;27178;49.460;10.850;2023-07-20T05:28:14;2.40;;;2.20;;
41436;SDS011;27178;49.460;10.850;2023-07-20T05:30:42;4.53;;;2.30;;
41436;SDS011;27178;49.460;10.850;2023-07-20T05:33:12;2.45;;;1.77;;
41436;SDS011;27178;49.460;10.850;2023-07-20T05:35:40;4.65;;;2.47;;
41436;SDS011;27178;49.460;10.850;2023-07-20T05:38:11;6.50;;;2.22;;
41436;SDS011;27178;49.460;10.850;2023-07-20T05:40:40;2.38;;;1.92;;
41436;SDS011;27178;49.460;10.850;2023-07-20T05:43:09;4.38;;;2.13;;
41436;SDS011;27178;49.460;10.850;2023-07-20T05:45:37;5.13;;;2.20;;
41436;SDS011;27178;49.460;10.850;2023-07-20T05:48:05;5.28;;;2.67;;
41436;SDS011;27178;49.460;10.850;2023-07-20T05:50:37;2.45;;;1.85;;
41436;SDS011;27178;49.460;10.850;2023-07-20T05:53:05;6.60;;;2.33;;
41436;SDS011;27178;49.460;10.850;2023-07-20T05:55:33;2.28;;;2.08;;
41436;SDS011;27178;49.460;10.850;2023-07-20T05:58:01;2.97;;;2.05;;
41436;SDS011;27178;49.460;10.850;2023-07-20T06:00:30;4.57;;;2.17;;
41436;SDS011;27178;49.460;10.850;2023-07-20T06:03:00;5.22;;;2.30;;
41436;SDS011;27178;49.460;10.850;2023-07-20T06:05:32;4.65;;;2.45;;
41436;SDS011;27178;49.460;10.850;2023-07-20T06:08:01;3.50;;;2.42;;
41436;SDS011;27178;49.460;10.850;2023-07-20T06:10:32;3.40;;;2.20;;
41436;SDS011;27178;49.460;10.850;2023-07-20T06:13:00;5.03;;;2.58;;
41436;SDS011;27178;49.460;10.850;2023-07-20T06:15:30;5.30;;;2.17;;
41436;SDS011;27178;49.460;10.850;2023-07-20T06:18:02;4.18;;;2.22;;
41436;SDS011;27178;49.460;10.850;2023-07-20T06:20:31;3.28;;;2.00;;
41436;SDS011;27178;49.460;10.850;2023-07-20T06:23:05;3.25;;;2.30;;
41436;SDS011;27178;49.460;10.850;2023-07-20T06:25:34;3.22;;;2.40;;
41436;SDS011;27178;49.460;10.850;2023-07-20T06:28:02;4.57;;;2.58;;
41436;SDS011;27178;49.460;10.850;2023-07-20T06:30:33;3.65;;;2.28;;
41436;SDS011;27178;49.460;10.850;2023-07-20T06:33:01;3.25;;;2.30;;
41436;SDS011;27178;49.460;10.850;2023-07-20T06:35:29;2.88;;;2.15;;
41436;SDS011;27178;49.460;10.850;2023-07-20T06:37:57;2.75;;;2.30;;
41436;SDS011;27178;49.460;10.850;2023-07-20T06:40:31;4.20;;;2.70;;
41436;SDS011;27178;49.460;10.850;2023-07-20T06:43:00;3.88;;;2.53;;
41436;SDS011;27178;49.460;10.850;2023-07-20T06:45:30;2.58;;;2.30;;
41436;SDS011;27178;49.460;10.850;2023-07-20T06:47:59;9.32;;;2.47;;
41436;SDS011;27178;49.460;10.850;2023-07-20T06:50:27;2.90;;;2.33;;
41436;SDS011;27178;49.460;10.850;2023-07-20T06:52:55;2.53;;;2.22;;
41436;SDS011;27178;49.460;10.850;2023-07-20T06:55:24;4.55;;;2.80;;
41436;SDS011;27178;49.460;10.850;2023-07-20T06:57:53;3.80;;;2.15;;
41436;SDS011;27178;49.460;10.850;2023-07-20T07:00:24;3.58;;;2.33;;
41436;SDS011;27178;49.460;10.850;2023-07-20T07:02:53;5.35;;;2.70;;
41436;SDS011;27178;49.460;10.850;2023-07-20T07:05:22;5.82;;;2.30;;
41436;SDS011;27178;49.460;10.850;2023-07-20T07:08:02;5.75;;;2.20;;
41436;SDS011;27178;49.460;10.850;2023-07-20T07:10:30;8.25;;;2.50;;
41436;SDS011;27178;49.460;10.850;2023-07-20T07:13:00;3.13;;;2.00;;
41436;SDS011;27178;49.460;10.850;2023-07-20T07:15:31;4.32;;;2.40;;
41436;SDS011;27178;49.460;10.850;2023-07-20T07:17:59;4.38;;;2.35;;
41436;SDS011;27178;49.460;10.850;2023-07-20T07:20:27;2.83;;;1.88;;
41436;SDS011;27178;49.460;10.850;2023-07-20T07:22:55;2.53;;;1.90;;
41436;SDS011;27178;49.460;10.850;2023-07-20T07:25:30;3.35;;;2.30;;
41436;SDS011;27178;49.460;10.850;2023-07-20T07:28:00;4.18;;;2.50;;
41436;SDS011;27178;49.460;10.850;2023-07-20T07:30:31;2.78;;;2.45;;
41436;SDS011;27178;49.460;10.850;2023-07-20T07:33:00;3.28;;;2.10;;
41436;SDS011;27178;49.460;10.850;2023-07-20T07:35:28;3.22;;;2.08;;
41436;SDS011;27178;49.460;10.850;2023-07-20T07:37:56;5.97;;;2.55;;
41436;SDS011;27178;49.460;10.850;2023-07-20T07:40:30;3.10;;;2.28;;
41436;SDS011;27178;49.460;10.850;2023-07-20T07:42:58;3.42;;;2.28;;
41436;SDS011;27178;49.460;10.850;2023-07-20T07:45:27;3.83;;;2.10;;
41436;SDS011;27178;49.460;10.850;2023-07-20T07:47:56;2.97;;;1.98;;
41436;SDS011;27178;49.460;10.850;2023-07-20T07:50:24;3.03;;;2.53;;
41436;SDS011;27178;49.460;10.850;2023-07-20T07:52:53;2.35;;;1.98;;
41436;SDS011;27178;49.460;10.850;2023-07-20T07:55:22;3.22;;;2.03;;
41436;SDS011;27178;49.460;10.850;2023-07-20T07:57:52;4.40;;;2.10;;
41436;SDS011;27178;49.460;10.850;2023-07-20T08:00:20;2.53;;;2.10;;
41436;SDS011;27178;49.460;10.850;2023-07-20T08:02:50;2.75;;;2.10;;
41436;SDS011;27178;49.460;10.850;2023-07-20T08:05:23;2.10;;;1.90;;
41436;SDS011;27178;49.460;10.850;2023-07-20T08:07:52;2.00;;;1.80;;
41436;SDS011;27178;49.460;10.850;2023-07-20T08:10:21;2.88;;;1.90;;
41436;SDS011;27178;49.460;10.850;2023-07-20T08:12:49;2.53;;;1.80;;
41436;SDS011;27178;49.460;10.850;2023-07-20T08:15:17;3.40;;;2.00;;
41436;SDS011;27178;49.460;10.850;2023-07-20T08:17:45;2.33;;;1.75;;
41436;SDS011;27178;49.460;10.850;2023-07-20T08:20:16;1.83;;;1.30;;
41436;SDS011;27178;49.460;10.850;2023-07-20T08:22:45;4.82;;;1.88;;
41436;SDS011;27178;49.460;10.850;2023-07-20T08:25:14;2.53;;;1.88;;
41436;SDS011;27178;49.460;10.850;2023-07-20T08:27:42;2.83;;;1.48;;
41436;SDS011;27178;49.460;10.850;2023-07-20T08:30:12;3.33;;;1.90;;
41436;SDS011;27178;49.460;10.850;2023-07-20T08:32:41;4.20;;;1.60;;
41436;SDS011;27178;49.460;10.850;2023-07-20T08:35:09;2.67;;;2.15;;
41436;SDS011;27178;49.460;10.850;2023-07-20T08:37:38;2.22;;;1.60;;
41436;SDS011;27178;49.460;10.850;2023-07-20T08:40:07;2.50;;;1.63;;
41436;SDS011;27178;49.460;10.850;2023-07-20T08:42:36;4.82;;;1.30;;
41436;SDS011;27178;49.460;10.850;2023-07-20T08:45:06;4.28;;;2.03;;
41436;SDS011;27178;49.460;10.850;2023-07-20T08:47:36;1.77;;;1.45;;
41436;SDS011;27178;49.460;10.850;2023-07-20T08:50:05;2.35;;;1.50;;
41436;SDS011;27178;49.460;10.850;2023-07-20T08:52:36;1.60;;;1.50;;
41436;SDS011;27178;49.460;10.850;2023-07-20T08:55:06;1.60;;;1.30;;
41436;SDS011;27178;49.460;10.850;2023-07-20T08:57:35;5.25;;;1.40;;
41436;SDS011;27178;49.460;10.850;2023-07-20T09:00:07;1.90;;;1.60;;
41436;SDS011;27178;49.460;10.850;2023-07-20T09:02:39;2.05;;;1.42;;
41436;SDS011;27178;49.460;10.850;2023-07-20T09:05:09;1.63;;;1.48;;
41436;SDS011;27178;49.460;10.850;2023-07-20T09:07:42;2.15;;;1.38;;
41436;SDS011;27178;49.460;10.850;2023-07-20T09:10:10;1.38;;;1.20;;
41436;SDS011;27178;49.460;10.850;2023-07-20T09:12:40;3.05;;;1.38;;
41436;SDS011;27178;49.460;10.850;2023-07-20T09:15:09;3.17;;;1.50;;
41436;SDS011;27178;49.460;10.850;2023-07-20T09:17:38;1.40;;;1.23;;
41436;SDS011;27178;49.460;10.850;2023-07-20T09:20:07;1.35;;;1.15;;
41436;SDS011;27178;49.460;10.850;2023-07-20T09:22:37;1.40;;;1.10;;
41436;SDS011;27178;49.460;10.850;2023-07-20T09:25:09;2.58;;;1.38;;
41436;SDS011;27178;49.460;10.850;2023-07-20T09:27:40;1.80;;;1.27;;
41436;SDS011;27178;49.460;10.850;2023-07-20T09:30:09;3.13;;;1.30;;
41436;SDS011;27178;49.460;10.850;2023-07-20T09:32:44;1.90;;;1.35;;
41436;SDS011;27178;49.460;10.850;2023-07-20T09:35:16;1.85;;;1.38;;
41436;SDS011;27178;49.460;10.850;2023-07-20T09:37:49;1.80;;;1.70;;
41436;SDS011;27178;49.460;10.850;2023-07-20T09:40:40;1.77;;;1.27;;
41436;SDS011;27178;49.460;10.850;2023-07-20T09:43:12;1.63;;;1.48;;
41436;SDS011;27178;49.460;10.850;2023-07-20T09:45:46;3.17;;;1.10;;
41436;SDS011;27178;49.460;10.850;2023-07-20T09:48:17;2.50;;;1.40;;
41436;SDS011;27178;49.460;10.850;2023-07-20T09:50:54;1.05;;;0.95;;
41436;SDS011;27178;49.460;10.850;2023-07-20T09:53:24;1.42;;;1.15;;
41436;SDS011;27178;49.460;10.850;2023-07-20T09:55:54;1.48;;;1.35;;
41436;SDS011;27178;49.460;10.850;2023-07-20T09:58:22;0.98;;;0.90;;
41436;SDS011;27178;49.460;10.850;2023-07-20T10:00:53;1.27;;;1.13;;
41436;SDS011;27178;49.460;10.850;2023-07-20T10:03:26;1.30;;;1.25;;
41436;SDS011;27178;49.460;10.850;2023-07-20T10:06:02;1.90;;;1.63;;
41436;SDS011;27178;49.460;10.850;2023-07-20T10:08:35;1.20;;;0.98;;
41436;SDS011;27178;49.460;10.850;2023-07-20T10:11:10;1.25;;;1.08;;
41436;SDS011;27178;49.460;10.850;2023-07-20T10:13:43;2.33;;;1.30;;
41436;SDS011;27178;49.460;10.850;2023-07-20T10:16:16;1.23;;;0.88;;
41436;SDS011;27178;49.460;10.850;2023-07-20T10:18:51;1.50;;;1.40;;
41436;SDS011;27178;49.460;10.850;2023-07-20T10:21:26;1.17;;;1.10;;
41436;SDS011;27178;49.460;10.850;2023-07-20T10:23:59;1.30;;;1.20;;
41436;SDS011;27178;49.460;10.850;2023-07-20T10:26:30;2.67;;;1.40;;
41436;SDS011;27178;49.460;10.850;2023-07-20T10:29:02;1.90;;;1.23;;
41436;SDS011;27178;49.460;10.850;2023-07-20T10:31:32;1.02;;;1.00;;
41436;SDS011;27178;49.460;10.850;2023-07-20T10:34:02;1.02;;;0.90;;
41436;SDS011;27178;49.460;10.850;2023-07-20T10:36:31;1.35;;;1.25;;
41436;SDS011;27178;49.460;10.850;2023-07-20T10:38:59;1.20;;;1.10;;
41436;SDS011;27178;49.460;10.850;2023-07-20T10:41:28;1.92;;;1.20;;
41436;SDS011;27178;49.460;10.850;2023-07-20T10:44:00;1.65;;;1.15;;
41436;SDS011;27178;49.460;10.850;2023-07-20T10:46:34;3.28;;;1.33;;
41436;SDS011;27178;49.460;10.850;2023-07-20T10:49:10;1.67;;;1.25;;
41436;SDS011;27178;49.460;10.850;2023-07-20T10:51:41;1.42;;;1.30;;
41436;SDS011;27178;49.460;10.850;2023-07-20T10:57:24;3.72;;;1.20;;
41436;SDS011;27178;49.460;10.850;2023-07-20T11:00:10;1.40;;;1.30;;
41436;SDS011;27178;49.460;10.850;2023-07-20T11:02:44;1.23;;;1.13;;
41436;SDS011;27178;49.460;10.850;2023-07-20T11:05:37;2.55;;;1.30;;
41436;SDS011;27178;49.460;10.850;2023-07-20T11:08:09;2.33;;;1.27;;
41436;SDS011;27178;49.460;10.850;2023-07-20T11:10:38;1.33;;;1.23;;
41436;SDS011;27178;49.460;10.850;2023-07-20T11:13:20;1.55;;;1.40;;
41436;SDS011;27178;49.460;10.850;2023-07-20T11:16:02;1.00;;;1.00;;
41436;SDS011;27178;49.460;10.850;2023-07-20T11:18:33;1.25;;;1.10;;
41436;SDS011;27178;49.460;10.850;2023-07-20T11:21:07;1.05;;;0.90;;
41436;SDS011;27178;49.460;10.850;2023-07-20T11:23:37;1.20;;;1.10;;
41436;SDS011;27178;49.460;10.850;2023-07-20T11:26:06;1.10;;;1.05;;
41436;SDS011;27178;49.460;10.850;2023-07-20T11:28:36;2.47;;;1.10;;
41436;SDS011;27178;49.460;10.850;2023-07-20T11:31:05;1.02;;;1.00;;
41436;SDS011;27178;49.460;10.850;2023-07-20T11:33:34;2.17;;;1.17;;
41436;SDS011;27178;49.460;10.850;2023-07-20T11:36:10;7.88;;;7.30;;
41436;SDS011;27178;49.460;10.850;2023-07-20T11:38:41;14.68;;;13.52;;
41436;SDS011;27178;49.460;10.850;2023-07-20T11:41:12;8.93;;;7.72;;
41436;SDS011;27178;49.460;10.850;2023-07-20T11:43:43;3.75;;;3.45;;
41436;SDS011;27178;49.460;10.850;2023-07-20T11:46:15;2.47;;;2.30;;
41436;SDS011;27178;49.460;10.850;2023-07-20T11:48:47;2.10;;;1.65;;
41436;SDS011;27178;49.460;10.850;2023-07-20T11:51:17;3.70;;;1.10;;
41436;SDS011;27178;49.460;10.850;2023-07-20T11:53:47;1.40;;;1.30;;
41436;SDS011;27178;49.460;10.850;2023-07-20T11:56:15;2.47;;;1.02;;
41436;SDS011;27178;49.460;10.850;2023-07-20T11:58:50;2.08;;;1.17;;
41436;SDS011;27178;49.460;10.850;2023-07-20T12:01:27;1.02;;;0.93;;
41436;SDS011;27178;49.460;10.850;2023-07-20T12:03:58;1.02;;;0.70;;
41436;SDS011;27178;49.460;10.850;2023-07-20T12:06:28;1.05;;;1.00;;
41436;SDS011;27178;49.460;10.850;2023-07-20T12:08:58;2.45;;;1.05;;
41436;SDS011;27178;49.460;10.850;2023-07-20T12:11:35;1.48;;;0.98;;
41436;SDS011;27178;49.460;10.850;2023-07-20T12:14:07;1.25;;;1.15;;
41436;SDS011;27178;49.460;10.850;2023-07-20T12:16:44;2.10;;;1.30;;
41436;SDS011;27178;49.460;10.850;2023-07-20T12:19:28;0.93;;;0.93;;
41436;SDS011;27178;49.460;10.850;2023-07-20T12:22:00;2.75;;;2.55;;
41436;SDS011;27178;49.460;10.850;2023-07-20T12:24:28;4.68;;;4.28;;
41436;SDS011;27178;49.460;10.850;2023-07-20T12:27:01;2.85;;;2.65;;
41436;SDS011;27178;49.460;10.850;2023-07-20T12:29:35;2.00;;;1.90;;
41436;SDS011;27178;49.460;10.850;2023-07-20T12:32:05;1.80;;;1.70;;
41436;SDS011;27178;49.460;10.850;2023-07-20T12:34:36;1.52;;;1.42;;
41436;SDS011;27178;49.460;10.850;2023-07-20T12:37:06;1.13;;;1.10;;
41436;SDS011;27178;49.460;10.850;2023-07-20T12:39:38;2.67;;;1.42;;
41436;SDS011;27178;49.460;10.850;2023-07-20T12:42:07;1.45;;;1.23;;
41436;SDS011;27178;49.460;10.850;2023-07-20T12:44:35;1.85;;;1.20;;
41436;SDS011;27178;49.460;10.850;2023-07-20T12:47:05;1.33;;;1.13;;
41436;SDS011;27178;49.460;10.850;2023-07-20T12:49:33;3.42;;;1.40;;
41436;SDS011;27178;49.460;10.850;2023-07-20T12:52:02;0.90;;;0.90;;
41436;SDS011;27178;49.460;10.850;2023-07-20T12:54:30;2.45;;;1.20;;
41436;SDS011;27178;49.460;10.850;2023-07-20T12:56:59;1.58;;;1.17;;
41436;SDS011;27178;49.460;10.850;2023-07-20T12:59:29;1.13;;;1.10;;
41436;SDS011;27178;49.460;10.850;2023-07-20T13:01:57;1.77;;;1.13;;
41436;SDS011;27178;49.460;10.850;2023-07-20T13:04:27;1.20;;;1.10;;
41436;SDS011;27178;49.460;10.850;2023-07-20T13:06:55;2.60;;;1.02;;
41436;SDS011;27178;49.460;10.850;2023-07-20T13:09:49;1.88;;;1.10;;
41436;SDS011;27178;49.460;10.850;2023-07-20T13:12:17;1.38;;;1.20;;
41436;SDS011;27178;49.460;10.850;2023-07-20T13:14:45;2.17;;;1.20;;
41436;SDS011;27178;49.460;10.850;2023-07-20T13:17:13;1.67;;;1.25;;
41436;SDS011;27178;49.460;10.850;2023-07-20T13:19:43;1.00;;;0.95;;
41436;SDS011;27178;49.460;10.850;2023-07-20T13:22:11;1.63;;;1.20;;
41436;SDS011;27178;49.460;10.850;2023-07-20T13:24:41;1.35;;;1.10;;
41436;SDS011;27178;49.460;10.850;2023-07-20T13:27:11;1.27;;;1.13;;
41436;SDS011;27178;49.460;10.850;2023-07-20T13:29:42;1.08;;;0.98;;
41436;SDS011;27178;49.460;10.850;2023-07-20T13:34:44;1.25;;;1.00;;
41436;SDS011;27178;49.460;10.850;2023-07-20T13:37:14;1.20;;;1.10;;
41436;SDS011;27178;49.460;10.850;2023-07-20T13:39:43;1.45;;;1.05;;
41436;SDS011;27178;49.460;10.850;2023-07-20T13:42:11;2.00;;;1.27;;
41436;SDS011;27178;49.460;10.850;2023-07-20T13:44:40;1.25;;;1.15;;
41436;SDS011;27178;49.460;10.850;2023-07-20T13:47:09;1.30;;;1.20;;
41436;SDS011;27178;49.460;10.850;2023-07-20T13:49:39;1.23;;;1.08;;
41436;SDS011;27178;49.460;10.850;2023-07-20T13:52:12;0.98;;;0.95;;
41436;SDS011;27178;49.460;10.850;2023-07-20T13:54:44;1.17;;;1.08;;
41436;SDS011;27178;49.460;10.850;2023-07-20T13:57:24;1.38;;;1.27;;
41436;SDS011;27178;49.460;10.850;2023-07-20T13:59:53;1.83;;;1.20;;
41436;SDS011;27178;49.460;10.850;2023-07-20T14:02:21;1.88;;;1.10;;
41436;SDS011;27178;49.460;10.850;2023-07-20T14:04:53;0.85;;;0.80;;
41436;SDS011;27178;49.460;10.850;2023-07-20T14:07:28;1.20;;;1.10;;
41436;SDS011;27178;49.460;10.850;2023-07-20T14:09:57;1.30;;;0.95;;
41436;SDS011;27178;49.460;10.850;2023-07-20T14:12:28;1.23;;;1.15;;
41436;SDS011;27178;49.460;10.850;2023-07-20T14:14:56;1.88;;;1.13;;
41436;SDS011;27178;49.460;10.850;2023-07-20T14:17:26;2.38;;;1.05;;
41436;SDS011;27178;49.460;10.850;2023-07-20T14:19:56;0.90;;;0.90;;
41436;SDS011;27178;49.460;10.850;2023-07-20T14:22:26;1.00;;;1.00;;
41436;SDS011;27178;49.460;10.850;2023-07-20T14:24:54;1.17;;;1.10;;
41436;SDS011;27178;49.460;10.850;2023-07-20T14:27:24;1.33;;;1.23;;
41436;SDS011;27178;49.460;10.850;2023-07-20T14:29:52;1.38;;;1.20;;
41436;SDS011;27178;49.460;10.850;2023-07-20T14:32:27;1.23;;;1.10;;
41436;SDS011;27178;49.460;10.850;2023-07-20T14:34:55;1.00;;;0.90;;
41436;SDS011;27178;49.460;10.850;2023-07-20T14:37:23;1.75;;;1.00;;
41436;SDS011;27178;49.460;10.850;2023-07-20T14:39:53;1.10;;;1.00;;
41436;SDS011;27178;49.460;10.850;2023-07-20T14:42:21;1.00;;;1.00;;
41436;SDS011;27178;49.460;10.850;2023-07-20T14:44:51;1.15;;;1.05;;
41436;SDS011;27178;49.460;10.850;2023-07-20T14:47:20;1.30;;;1.02;;
41436;SDS011;27178;49.460;10.850;2023-07-20T14:49:48;0.95;;;0.90;;
41436;SDS011;27178;49.460;10.850;2023-07-20T14:52:16;1.23;;;1.08;;
41436;SDS011;27178;49.460;10.850;2023-07-20T14:54:44;1.10;;;1.00;;
41436;SDS011;27178;49.460;10.850;2023-07-20T14:57:14;1.10;;;1.00;;
41436;SDS011;27178;49.460;10.850;2023-07-20T14:59:42;1.75;;;1.25;;